createdAt,value
2022-12-06T00:00:43.146Z,4.56
2022-12-06T00:03:58.797Z,4.55
2022-12-06T00:07:11.558Z,4.53
2022-12-06T00:10:23.473Z,4.51
2022-12-06T00:13:35.917Z,4.46
2022-12-06T00:16:47.631Z,4.44
2022-12-06T00:19:59.802Z,4.45
2022-12-06T00:23:11.797Z,4.49
2022-12-06T00:26:25.529Z,4.45
2022-12-06T00:29:37.453Z,4.42
2022-12-06T00:32:49.191Z,4.44
2022-12-06T00:36:05.870Z,4.42
2022-12-06T00:39:19.852Z,4.46
2022-12-06T00:42:31.600Z,4.48
2022-12-06T00:45:43.211Z,4.50
2022-12-06T00:48:56.179Z,4.54
2022-12-06T00:52:07.985Z,4.44
2022-12-06T00:55:19.761Z,4.46
2022-12-06T00:58:31.704Z,4.51
2022-12-06T01:01:43.737Z,4.56
2022-12-06T01:04:55.869Z,4.49
2022-12-06T01:08:07.906Z,4.51
2022-12-06T01:11:22.179Z,4.48
2022-12-06T01:14:33.971Z,4.52
2022-12-06T01:17:45.879Z,4.56
2022-12-06T01:20:57.541Z,4.57
2022-12-06T01:24:10.966Z,4.53
2022-12-06T01:27:22.898Z,4.49
2022-12-06T01:30:35.305Z,4.46
2022-12-06T01:33:47.648Z,4.52
2022-12-06T01:36:59.462Z,4.56
2022-12-06T01:40:14.215Z,4.60
2022-12-06T01:43:41.750Z,4.63
2022-12-06T01:46:51.719Z,4.61
2022-12-06T01:50:07.605Z,4.52
2022-12-06T01:53:25.258Z,4.52
2022-12-06T01:56:33.657Z,4.50
2022-12-06T01:59:46.083Z,4.53
2022-12-06T02:02:59.633Z,4.49
2022-12-06T02:06:14.664Z,4.41
2022-12-06T02:09:28.313Z,4.41
2022-12-06T02:12:39.984Z,4.35
2022-12-06T02:15:58.760Z,4.32
2022-12-06T02:19:19.048Z,4.32
2022-12-06T02:22:49.264Z,4.27
2022-12-06T02:26:26.046Z,4.26
2022-12-06T02:30:11.091Z,4.29
2022-12-06T02:33:29.823Z,4.17
2022-12-06T02:36:48.053Z,4.21
2022-12-06T02:40:05.531Z,4.20
2022-12-06T02:43:21.701Z,4.24
2022-12-06T02:46:36.847Z,4.17
2022-12-06T02:49:55.012Z,4.12
2022-12-06T02:53:10.160Z,4.18
2022-12-06T02:56:23.275Z,4.22
2022-12-06T02:59:35.210Z,4.18
2022-12-06T03:02:47.250Z,4.15
2022-12-06T03:06:13.177Z,4.15
2022-12-06T03:09:43.112Z,4.10
2022-12-06T03:13:00.865Z,4.14
2022-12-06T03:16:18.767Z,4.06
2022-12-06T03:19:33.938Z,4.07
2022-12-06T03:22:50.199Z,4.08
2022-12-06T03:26:04.968Z,4.03
2022-12-06T03:29:19.734Z,4.03
2022-12-06T03:32:36.153Z,4.02
2022-12-06T03:35:50.416Z,4.02
2022-12-06T03:39:05.205Z,3.97
2022-12-06T03:42:17.962Z,3.95
2022-12-06T03:45:34.637Z,3.96
2022-12-06T03:48:50.848Z,3.91
2022-12-06T03:52:03.698Z,3.88
2022-12-06T03:55:16.521Z,3.86
2022-12-06T03:58:28.335Z,3.82
2022-12-06T04:01:41.188Z,3.84
2022-12-06T04:04:53.432Z,3.84
2022-12-06T04:08:05.214Z,3.84
2022-12-06T04:11:17.320Z,3.75
2022-12-06T04:14:31.869Z,3.73
2022-12-06T04:18:01.533Z,3.72
2022-12-06T04:21:27.820Z,3.73
2022-12-06T04:24:39.774Z,3.74
2022-12-06T04:28:05.922Z,3.74
2022-12-06T04:31:32.731Z,3.67
2022-12-06T04:34:59.146Z,3.58
2022-12-06T04:38:25.469Z,3.58
2022-12-06T04:41:51.908Z,3.64
2022-12-06T04:45:03.759Z,3.57
2022-12-06T04:48:15.479Z,3.53
2022-12-06T04:51:27.427Z,3.50
2022-12-06T04:54:40.261Z,3.46
2022-12-06T04:57:52.464Z,3.47
2022-12-06T05:01:04.300Z,3.46
2022-12-06T05:04:16.279Z,3.43
2022-12-06T05:07:28.310Z,3.40
2022-12-06T05:10:40.204Z,3.44
2022-12-06T05:13:52.013Z,3.45
2022-12-06T05:17:03.722Z,3.51
2022-12-06T05:20:18.289Z,3.52
2022-12-06T05:23:30.550Z,3.50
2022-12-06T05:26:42.616Z,3.48
2022-12-06T05:29:54.333Z,3.49
2022-12-06T05:33:06.290Z,3.46
2022-12-06T05:36:23.020Z,3.52
2022-12-06T05:39:34.732Z,3.53
2022-12-06T05:42:49.762Z,3.58
2022-12-06T05:46:02.869Z,3.51
2022-12-06T05:49:14.841Z,3.54
2022-12-06T05:52:26.918Z,3.57
2022-12-06T05:55:38.797Z,3.54
2022-12-06T05:58:50.940Z,3.55
2022-12-06T06:02:02.849Z,3.47
2022-12-06T06:05:16.185Z,3.54
2022-12-06T06:08:28.690Z,3.48
2022-12-06T06:11:40.360Z,3.53
2022-12-06T06:14:53.265Z,3.56
2022-12-06T06:18:04.995Z,3.53
2022-12-06T06:21:16.986Z,3.56
2022-12-06T06:24:28.895Z,3.53
2022-12-06T06:27:43.016Z,3.51
2022-12-06T06:30:55.165Z,3.46
2022-12-06T06:34:07.280Z,3.39
2022-12-06T06:37:19.126Z,3.40
2022-12-06T06:40:30.850Z,3.36
2022-12-06T06:43:43.971Z,3.36
2022-12-06T06:46:55.643Z,3.38
2022-12-06T06:50:07.398Z,3.43
2022-12-06T06:53:19.254Z,3.35
2022-12-06T06:56:31.210Z,3.37
2022-12-06T06:59:43.070Z,3.35
2022-12-06T07:02:54.849Z,3.41
2022-12-06T07:06:08.939Z,3.37
2022-12-06T07:09:20.953Z,3.34
2022-12-06T07:12:32.583Z,3.27
2022-12-06T07:15:44.887Z,3.29
2022-12-06T07:18:56.745Z,3.25
2022-12-06T07:22:08.351Z,3.22
2022-12-06T07:25:20.755Z,3.26
2022-12-06T07:28:32.440Z,3.30
2022-12-06T07:31:44.491Z,3.25
2022-12-06T07:34:56.115Z,3.27
2022-12-06T07:38:08.872Z,3.31
2022-12-06T07:41:35.814Z,3.35
2022-12-06T07:45:07.515Z,3.27
2022-12-06T07:48:20.933Z,3.22
2022-12-06T07:51:32.613Z,3.16
2022-12-06T07:54:44.213Z,3.19
2022-12-06T07:57:55.824Z,3.21
2022-12-06T08:01:08.329Z,3.24
2022-12-06T08:04:20.567Z,3.21
2022-12-06T08:07:33.060Z,3.21
2022-12-06T08:10:44.793Z,3.22
2022-12-06T08:13:56.626Z,3.26
2022-12-06T08:17:08.714Z,3.30
2022-12-06T08:20:20.742Z,3.34
2022-12-06T08:23:34.421Z,3.31
2022-12-06T08:26:46.170Z,3.38
2022-12-06T08:29:58.174Z,3.39
2022-12-06T08:33:10.135Z,3.24
2022-12-06T08:36:24.628Z,3.20
2022-12-06T08:39:36.605Z,3.23
2022-12-06T08:42:48.300Z,3.34
2022-12-06T08:46:00.177Z,3.33
2022-12-06T08:49:12.219Z,3.35
2022-12-06T08:52:24.230Z,3.27
2022-12-06T08:55:35.959Z,3.34
2022-12-06T08:58:47.670Z,3.30
2022-12-06T09:01:59.441Z,3.28
2022-12-06T09:05:12.379Z,3.38
2022-12-06T09:08:24.191Z,3.42
2022-12-06T09:11:36.341Z,3.33
2022-12-06T09:14:48.235Z,3.27
2022-12-06T09:17:59.918Z,3.28
2022-12-06T09:21:15.944Z,3.31
2022-12-06T09:24:27.961Z,3.33
2022-12-06T09:27:39.653Z,3.16
2022-12-06T09:30:51.343Z,3.20
2022-12-06T09:34:03.211Z,3.22
2022-12-06T09:37:18.902Z,3.22
2022-12-06T09:40:42.718Z,3.08
2022-12-06T09:44:04.044Z,3.14
2022-12-06T09:47:25.397Z,3.25
2022-12-06T09:50:43.555Z,3.28
2022-12-06T09:54:09.167Z,3.29
2022-12-06T09:57:26.609Z,3.30
2022-12-06T10:00:44.742Z,3.26
2022-12-06T10:04:24.647Z,3.26
2022-12-06T10:07:42.054Z,3.23
2022-12-06T10:11:08.727Z,3.30
2022-12-06T10:14:30.261Z,3.36
2022-12-06T10:17:53.531Z,3.35
2022-12-06T10:21:13.585Z,3.38
2022-12-06T10:24:40.409Z,3.41
2022-12-06T10:28:00.677Z,3.45
2022-12-06T10:31:21.090Z,3.50
2022-12-06T10:34:49.275Z,3.53
2022-12-06T10:38:13.396Z,3.60
2022-12-06T10:41:30.781Z,3.58
2022-12-06T10:44:47.742Z,3.65
2022-12-06T10:48:02.783Z,3.61
2022-12-06T10:51:19.521Z,3.65
2022-12-06T10:54:37.848Z,3.68
2022-12-06T10:57:56.107Z,3.70
2022-12-06T11:01:11.993Z,3.72
2022-12-06T11:04:29.718Z,3.65
2022-12-06T11:07:45.428Z,3.73
2022-12-06T11:10:59.386Z,3.86
2022-12-06T11:14:20.457Z,3.92
2022-12-06T11:17:36.401Z,3.95
2022-12-06T11:20:56.877Z,4.01
2022-12-06T11:24:14.485Z,4.04
2022-12-06T11:27:32.087Z,4.07
2022-12-06T11:30:44.050Z,4.09
2022-12-06T11:33:56.151Z,4.06
2022-12-06T11:37:10.406Z,4.06
2022-12-06T11:40:29.182Z,4.14
2022-12-06T11:43:41.902Z,4.15
2022-12-06T11:46:58.154Z,4.18
2022-12-06T11:50:17.173Z,4.25
2022-12-06T11:53:34.798Z,4.23
2022-12-06T11:56:46.717Z,4.26
2022-12-06T12:00:22.873Z,4.30
2022-12-06T12:03:38.955Z,4.35
2022-12-06T12:06:52.337Z,4.30
2022-12-06T12:10:08.792Z,4.30
2022-12-06T12:13:44.050Z,4.35
2022-12-06T12:17:00.787Z,4.40
2022-12-06T12:20:24.506Z,4.43
2022-12-06T12:23:40.678Z,4.46
2022-12-06T12:26:52.654Z,4.46
2022-12-06T12:30:32.996Z,4.51
2022-12-06T12:33:44.921Z,4.53
2022-12-06T12:37:00.799Z,4.56
2022-12-06T12:40:27.034Z,4.58
2022-12-06T12:43:40.206Z,4.61
2022-12-06T12:46:55.216Z,4.64
2022-12-06T12:50:23.970Z,4.64
2022-12-06T12:53:40.479Z,4.64
2022-12-06T12:56:52.752Z,4.62
2022-12-06T13:00:06.069Z,4.61
2022-12-06T13:06:45.577Z,4.63
2022-12-06T13:10:05.014Z,4.64
2022-12-06T13:13:25.336Z,4.64
2022-12-06T13:16:42.382Z,4.65
2022-12-06T13:19:53.652Z,4.67
2022-12-06T13:23:10.223Z,4.65
2022-12-06T13:26:27.258Z,4.70
2022-12-06T13:29:39.977Z,4.72
2022-12-06T13:32:57.148Z,4.74
2022-12-06T13:36:10.456Z,4.75
2022-12-06T13:39:50.685Z,4.75
2022-12-06T13:43:02.728Z,4.74
2022-12-06T13:46:37.756Z,4.71
2022-12-06T13:49:51.597Z,4.68
2022-12-06T13:53:09.721Z,4.61
2022-12-06T13:56:39.049Z,4.49
2022-12-06T13:59:50.969Z,4.43
2022-12-06T14:03:03.935Z,4.33
2022-12-06T14:06:17.568Z,4.26
2022-12-06T14:09:31.083Z,4.24
2022-12-06T14:12:43.198Z,4.20
2022-12-06T14:15:57.856Z,4.13
2022-12-06T14:19:21.585Z,4.07
2022-12-06T14:22:37.927Z,4.04
2022-12-06T14:25:49.922Z,4.06
2022-12-06T14:29:04.707Z,4.06
2022-12-06T14:32:17.132Z,4.04
2022-12-06T14:35:34.335Z,4.03
2022-12-06T14:38:46.388Z,3.95
2022-12-06T14:42:19.127Z,3.90
2022-12-06T14:45:31.175Z,3.95
2022-12-06T14:48:58.636Z,3.96
2022-12-06T14:52:22.540Z,3.95
2022-12-06T14:55:37.187Z,3.97
2022-12-06T14:58:49.510Z,3.96
2022-12-06T15:02:02.047Z,3.88
2022-12-06T15:05:42.151Z,3.79
2022-12-06T15:08:56.098Z,3.74
2022-12-06T15:12:42.130Z,3.76
2022-12-06T15:15:58.895Z,3.70
2022-12-06T15:19:14.319Z,3.68
2022-12-06T15:22:29.486Z,3.66
2022-12-06T15:25:41.453Z,3.67
2022-12-06T15:28:54.411Z,3.62
2022-12-06T15:32:06.618Z,3.64
2022-12-06T15:35:23.842Z,3.59
2022-12-06T15:38:35.894Z,3.61
2022-12-06T15:41:48.315Z,3.56
2022-12-06T15:45:01.398Z,3.59
2022-12-06T15:48:14.837Z,3.57
2022-12-06T15:51:30.068Z,3.61
2022-12-06T15:54:42.075Z,3.59
2022-12-06T15:57:54.328Z,3.61
2022-12-06T16:01:06.683Z,3.63
2022-12-06T16:04:24.365Z,3.63
2022-12-06T16:07:36.389Z,3.64
2022-12-06T16:11:11.222Z,3.64
2022-12-06T16:14:02.615Z,3.60
2022-12-06T16:17:14.780Z,3.58
2022-12-06T16:20:37.905Z,3.59
2022-12-06T16:24:13.824Z,3.55
2022-12-06T16:27:19.041Z,3.48
2022-12-06T16:30:40.126Z,3.48
2022-12-06T16:33:52.267Z,3.48
2022-12-06T16:37:07.636Z,3.44
2022-12-06T16:40:25.548Z,3.45
2022-12-06T16:43:37.765Z,3.46
2022-12-06T16:46:50.642Z,3.47
2022-12-06T16:50:03.065Z,3.46
2022-12-06T16:53:16.607Z,3.44
2022-12-06T16:56:28.578Z,3.45
2022-12-06T16:59:42.526Z,3.42
2022-12-06T17:02:55.270Z,3.41
2022-12-06T17:06:07.783Z,3.44
2022-12-06T17:09:20.374Z,3.39
2022-12-06T17:12:32.980Z,3.38
2022-12-06T17:15:44.943Z,3.40
2022-12-06T17:18:57.266Z,3.40
2022-12-06T17:22:09.417Z,3.40
2022-12-06T17:25:22.152Z,3.40
2022-12-06T17:28:34.933Z,3.39
2022-12-06T17:31:47.258Z,3.37
2022-12-06T17:34:59.835Z,3.37
2022-12-06T17:38:12.128Z,3.37
2022-12-06T17:41:45.821Z,3.39
2022-12-06T17:44:57.768Z,3.37
2022-12-06T17:48:10.591Z,3.37
2022-12-06T17:51:22.869Z,3.36
2022-12-06T17:54:35.301Z,3.36
2022-12-06T17:57:47.155Z,3.32
2022-12-06T18:00:59.443Z,3.32
2022-12-06T18:04:13.749Z,3.35
2022-12-06T18:07:26.413Z,3.31
2022-12-06T18:10:38.204Z,3.34
2022-12-06T18:13:51.086Z,3.33
2022-12-06T18:17:03.376Z,3.33
2022-12-06T18:20:17.090Z,3.32
2022-12-06T18:23:29.165Z,3.31
2022-12-06T18:26:41.837Z,3.32
2022-12-06T18:29:53.915Z,3.33
2022-12-06T18:33:08.618Z,3.32
2022-12-06T18:36:21.258Z,3.32
2022-12-06T18:39:33.278Z,3.32
2022-12-06T18:42:45.488Z,3.29
2022-12-06T18:46:04.979Z,3.24
2022-12-06T18:49:18.522Z,3.18
2022-12-06T18:52:30.703Z,3.15
2022-12-06T18:55:42.912Z,3.12
2022-12-06T18:58:55.638Z,3.11
2022-12-06T19:02:07.727Z,3.14
2022-12-06T19:05:39.394Z,3.09
2022-12-06T19:08:34.181Z,3.06
2022-12-06T19:11:49.480Z,3.08
2022-12-06T19:15:01.595Z,2.99
2022-12-06T19:18:13.829Z,2.98
2022-12-06T19:21:26.228Z,2.95
2022-12-06T19:24:38.231Z,2.92
2022-12-06T19:27:50.405Z,2.93
2022-12-06T19:31:08.588Z,2.86
2022-12-06T19:34:26.184Z,2.87
2022-12-06T19:37:38.289Z,2.77
2022-12-06T19:40:50.398Z,2.84
2022-12-06T19:44:21.984Z,2.76
2022-12-06T19:47:34.037Z,2.74
2022-12-06T19:50:46.133Z,2.74
2022-12-06T19:53:58.957Z,2.73
2022-12-06T19:57:11.809Z,2.72
2022-12-06T20:00:24.463Z,2.67
2022-12-06T20:03:36.438Z,2.60
2022-12-06T20:06:49.182Z,2.59
2022-12-06T20:10:01.517Z,2.58
2022-12-06T20:13:13.812Z,2.60
2022-12-06T20:16:25.748Z,2.62
2022-12-06T20:19:37.989Z,2.60
2022-12-06T20:22:50.035Z,2.58
2022-12-06T20:26:03.932Z,2.59
2022-12-06T20:29:17.990Z,2.63
2022-12-06T20:32:29.891Z,2.61
2022-12-06T20:35:44.084Z,2.67
2022-12-06T20:38:56.676Z,2.64
2022-12-06T20:42:08.822Z,2.64
2022-12-06T20:45:21.730Z,2.70
2022-12-06T20:48:33.583Z,2.70
2022-12-06T20:51:51.149Z,2.72
2022-12-06T20:55:00.000Z,2.76
2022-12-06T20:58:12.146Z,2.73
2022-12-06T21:01:27.584Z,2.71
2022-12-06T21:04:39.589Z,2.75
2022-12-06T21:07:51.584Z,2.77
2022-12-06T21:14:20.761Z,2.79
2022-12-06T21:17:32.625Z,2.80
2022-12-06T21:20:46.608Z,2.76
2022-12-06T21:23:58.759Z,2.72
2022-12-06T21:27:10.565Z,2.75
2022-12-06T21:30:23.424Z,2.70
2022-12-06T21:33:35.333Z,2.70
2022-12-06T21:36:47.719Z,2.71
2022-12-06T21:39:59.839Z,2.68
2022-12-06T21:43:12.902Z,2.63
2022-12-06T21:46:27.992Z,2.64
2022-12-06T21:49:40.081Z,2.61
2022-12-06T21:52:51.954Z,2.61
2022-12-06T21:56:03.957Z,2.64
2022-12-06T21:59:15.860Z,2.62
2022-12-06T22:02:27.858Z,2.65
2022-12-06T22:05:39.999Z,2.67
2022-12-06T22:08:55.859Z,2.69
2022-12-06T22:12:07.961Z,2.66
2022-12-06T22:15:20.161Z,2.63
2022-12-06T22:18:33.140Z,2.63
2022-12-06T22:21:44.952Z,2.60
2022-12-06T22:24:56.834Z,2.59
2022-12-06T22:28:08.794Z,2.60
2022-12-06T22:31:22.885Z,2.57
2022-12-06T22:34:35.084Z,2.58
2022-12-06T22:37:46.892Z,2.56
2022-12-06T22:41:04.436Z,2.61
2022-12-06T22:44:18.146Z,2.58
2022-12-06T22:47:30.117Z,2.56
2022-12-06T22:50:42.012Z,2.59
2022-12-06T22:53:58.934Z,2.59
2022-12-06T22:57:10.679Z,2.63
2022-12-06T23:00:24.276Z,2.61
2022-12-06T23:03:37.647Z,2.63
2022-12-06T23:06:49.750Z,2.63
2022-12-06T23:10:01.667Z,2.61
2022-12-06T23:13:13.523Z,2.60
2022-12-06T23:16:28.255Z,2.61
2022-12-06T23:19:40.677Z,2.62
2022-12-06T23:22:52.511Z,2.63
2022-12-06T23:26:11.507Z,2.58
2022-12-06T23:29:23.963Z,2.62
2022-12-06T23:32:36.318Z,2.62
2022-12-06T23:35:48.054Z,2.65
2022-12-06T23:39:00.471Z,2.71
2022-12-06T23:42:12.479Z,2.70
2022-12-06T23:45:24.283Z,2.67
2022-12-06T23:48:37.813Z,2.63
2022-12-06T23:51:50.163Z,2.67
2022-12-06T23:55:02.048Z,2.66
2022-12-06T23:58:13.868Z,2.64
